createdAt,value
2022-11-18T00:00:25.276Z,87.38
2022-11-18T00:03:32.197Z,87.47
2022-11-18T00:06:38.512Z,87.42
2022-11-18T00:09:43.004Z,87.31
2022-11-18T00:13:06.697Z,87.51
2022-11-18T00:16:14.396Z,87.56
2022-11-18T00:19:21.763Z,87.66
2022-11-18T00:22:29.996Z,87.50
2022-11-18T00:25:36.789Z,87.45
2022-11-18T00:28:43.520Z,87.42
2022-11-18T00:31:49.916Z,87.45
2022-11-18T00:34:54.504Z,87.37
2022-11-18T00:38:01.000Z,87.36
2022-11-18T00:41:09.548Z,87.46
2022-11-18T00:44:15.797Z,87.63
2022-11-18T00:47:22.068Z,87.60
2022-11-18T00:50:26.917Z,87.54
2022-11-18T00:53:33.228Z,87.47
2022-11-18T00:56:37.849Z,87.40
2022-11-18T00:59:44.189Z,87.34
2022-11-18T01:02:48.673Z,87.61
2022-11-18T01:05:55.238Z,87.47
2022-11-18T01:09:01.547Z,87.50
2022-11-18T01:12:23.776Z,87.43
2022-11-18T01:15:30.115Z,87.48
2022-11-18T01:18:34.663Z,87.36
2022-11-18T01:21:41.140Z,87.30
2022-11-18T01:24:47.402Z,87.33
2022-11-18T01:27:53.720Z,87.32
2022-11-18T01:31:04.585Z,87.30
2022-11-18T01:34:10.879Z,87.31
2022-11-18T01:37:15.545Z,87.44
2022-11-18T01:40:22.205Z,87.22
2022-11-18T01:43:48.624Z,87.27
2022-11-18T01:46:54.945Z,87.24
2022-11-18T01:50:00.555Z,87.34
2022-11-18T01:53:10.780Z,87.26
2022-11-18T01:56:20.249Z,87.25
2022-11-18T01:59:31.557Z,87.33
2022-11-18T02:02:39.920Z,87.13
2022-11-18T02:05:48.070Z,87.21
2022-11-18T02:08:55.987Z,87.40
2022-11-18T02:12:02.583Z,87.04
2022-11-18T02:15:11.059Z,87.07
2022-11-18T02:18:30.264Z,87.22
2022-11-18T02:21:49.739Z,87.24
2022-11-18T02:25:06.558Z,87.26
2022-11-18T02:28:40.474Z,87.27
2022-11-18T02:31:54.003Z,87.26
2022-11-18T02:35:08.267Z,87.40
2022-11-18T02:38:20.154Z,87.60
2022-11-18T02:41:29.994Z,87.49
2022-11-18T02:44:38.830Z,87.40
2022-11-18T02:47:47.570Z,87.30
2022-11-18T02:50:55.704Z,87.45
2022-11-18T02:54:05.521Z,87.64
2022-11-18T02:57:13.064Z,87.68
2022-11-18T03:00:20.559Z,87.47
2022-11-18T03:03:31.039Z,87.57
2022-11-18T03:06:41.117Z,87.63
2022-11-18T03:09:52.998Z,87.54
2022-11-18T03:13:10.603Z,87.81
2022-11-18T03:16:24.345Z,87.66
2022-11-18T03:19:40.904Z,87.60
2022-11-18T03:22:52.441Z,87.49
2022-11-18T03:26:03.597Z,87.73
2022-11-18T03:29:17.528Z,87.79
2022-11-18T03:32:29.419Z,87.70
2022-11-18T03:35:41.330Z,87.64
2022-11-18T03:38:52.893Z,87.53
2022-11-18T03:42:05.396Z,87.54
2022-11-18T03:45:18.740Z,87.65
2022-11-18T03:48:28.108Z,87.61
2022-11-18T03:51:39.401Z,87.66
2022-11-18T03:54:49.773Z,87.71
2022-11-18T03:58:02.073Z,87.57
2022-11-18T04:01:17.244Z,87.51
2022-11-18T04:04:24.677Z,87.66
2022-11-18T04:07:34.781Z,87.58
2022-11-18T04:10:47.225Z,87.72
2022-11-18T04:13:53.549Z,87.80
2022-11-18T04:16:58.047Z,87.93
2022-11-18T04:20:04.535Z,87.90
2022-11-18T04:23:11.230Z,87.87
2022-11-18T04:26:18.529Z,87.94
2022-11-18T04:29:24.866Z,87.88
2022-11-18T04:32:29.495Z,87.58
2022-11-18T04:35:35.754Z,87.77
2022-11-18T04:38:42.009Z,87.93
2022-11-18T04:41:58.834Z,87.74
2022-11-18T04:45:05.601Z,87.92
2022-11-18T04:48:11.874Z,87.74
2022-11-18T04:51:16.394Z,87.67
2022-11-18T04:54:23.772Z,87.83
2022-11-18T04:57:30.142Z,87.94
2022-11-18T05:00:34.664Z,87.94
2022-11-18T05:03:45.080Z,88.04
2022-11-18T05:06:54.442Z,88.12
2022-11-18T05:10:00.814Z,88.31
2022-11-18T05:13:05.393Z,88.23
2022-11-18T05:16:11.828Z,88.13
2022-11-18T05:19:18.626Z,88.19
2022-11-18T05:22:25.074Z,88.12
2022-11-18T05:25:29.625Z,88.06
2022-11-18T05:28:36.185Z,87.99
2022-11-18T05:31:42.630Z,88.01
2022-11-18T05:34:48.888Z,88.07
2022-11-18T05:37:53.385Z,88.00
2022-11-18T05:40:59.697Z,88.04
2022-11-18T05:44:04.836Z,88.10
2022-11-18T05:47:11.291Z,88.06
2022-11-18T05:50:21.337Z,88.16
2022-11-18T05:53:28.326Z,88.21
2022-11-18T05:56:38.103Z,88.16
2022-11-18T05:59:44.450Z,88.17
2022-11-18T06:02:50.828Z,88.23
2022-11-18T06:05:59.561Z,88.07
2022-11-18T06:09:09.485Z,88.17
2022-11-18T06:12:21.099Z,88.28
2022-11-18T06:15:31.542Z,88.23
2022-11-18T06:18:39.222Z,88.10
2022-11-18T06:21:46.320Z,88.37
2022-11-18T06:24:52.826Z,88.32
2022-11-18T06:28:01.979Z,88.26
2022-11-18T06:31:08.645Z,88.25
2022-11-18T06:34:15.655Z,88.51
2022-11-18T06:37:22.825Z,88.47
2022-11-18T06:40:34.280Z,88.47
2022-11-18T06:43:41.712Z,88.39
2022-11-18T06:46:57.211Z,88.35
2022-11-18T06:50:03.497Z,88.39
2022-11-18T06:53:07.981Z,88.34
2022-11-18T06:56:16.220Z,88.48
2022-11-18T06:59:24.558Z,88.46
2022-11-18T07:02:30.978Z,88.32
2022-11-18T07:05:37.333Z,88.14
2022-11-18T07:08:42.956Z,88.40
2022-11-18T07:11:49.298Z,88.41
2022-11-18T07:14:53.825Z,88.53
2022-11-18T07:18:00.031Z,88.61
2022-11-18T07:21:08.505Z,88.71
2022-11-18T07:24:17.251Z,88.68
2022-11-18T07:27:23.574Z,88.53
2022-11-18T07:30:28.129Z,88.60
2022-11-18T07:33:35.313Z,88.53
2022-11-18T07:36:41.517Z,88.36
2022-11-18T07:39:47.762Z,88.38
2022-11-18T07:42:55.014Z,88.37
2022-11-18T07:46:09.679Z,88.52
2022-11-18T07:49:16.272Z,88.48
2022-11-18T07:52:22.744Z,88.45
2022-11-18T07:55:31.992Z,88.48
2022-11-18T07:58:38.960Z,88.62
2022-11-18T08:01:45.319Z,88.52
2022-11-18T08:04:51.746Z,88.84
2022-11-18T08:07:56.306Z,88.66
2022-11-18T08:11:06.243Z,88.51
2022-11-18T08:14:12.510Z,88.68
2022-11-18T08:17:18.783Z,88.79
2022-11-18T08:20:27.412Z,88.68
2022-11-18T08:23:38.847Z,88.80
2022-11-18T08:26:48.028Z,88.87
2022-11-18T08:29:52.661Z,88.95
2022-11-18T08:32:59.841Z,88.91
2022-11-18T08:36:11.391Z,88.76
2022-11-18T08:39:17.914Z,88.65
2022-11-18T08:42:28.724Z,88.65
2022-11-18T08:45:40.050Z,88.75
2022-11-18T08:48:46.344Z,88.73
2022-11-18T08:51:51.004Z,88.57
2022-11-18T08:54:57.227Z,88.61
2022-11-18T08:58:03.548Z,88.53
2022-11-18T09:01:09.297Z,88.47
2022-11-18T09:04:15.646Z,88.49
2022-11-18T09:07:20.736Z,88.54
2022-11-18T09:10:26.969Z,88.42
2022-11-18T09:13:53.656Z,88.57
2022-11-18T09:16:59.481Z,88.52
2022-11-18T09:20:04.085Z,88.64
2022-11-18T09:23:10.354Z,88.63
2022-11-18T09:26:15.576Z,88.76
2022-11-18T09:29:26.415Z,88.73
2022-11-18T09:32:33.808Z,88.56
2022-11-18T09:35:45.069Z,88.58
2022-11-18T09:38:53.239Z,88.59
2022-11-18T09:42:07.456Z,88.59
2022-11-18T09:45:25.520Z,88.58
2022-11-18T09:48:46.542Z,88.67
2022-11-18T09:51:56.066Z,88.68
2022-11-18T09:55:02.921Z,88.50
2022-11-18T09:58:16.791Z,88.60
2022-11-18T10:01:27.239Z,88.82
2022-11-18T10:04:34.074Z,88.57
2022-11-18T10:07:47.383Z,88.31
2022-11-18T10:11:02.269Z,88.20
2022-11-18T10:14:20.743Z,88.29
2022-11-18T10:17:41.855Z,88.30
2022-11-18T10:20:56.747Z,88.52
2022-11-18T10:24:09.805Z,88.66
2022-11-18T10:27:17.285Z,88.66
2022-11-18T10:30:25.108Z,88.50
2022-11-18T10:33:32.198Z,88.51
2022-11-18T10:36:38.737Z,88.49
2022-11-18T10:39:55.273Z,88.30
2022-11-18T10:43:01.560Z,88.25
2022-11-18T10:46:16.801Z,88.19
2022-11-18T10:49:23.092Z,88.45
2022-11-18T10:52:27.977Z,88.40
2022-11-18T10:55:34.538Z,88.26
2022-11-18T10:58:45.305Z,88.20
2022-11-18T11:02:09.456Z,88.46
2022-11-18T11:05:23.857Z,88.41
2022-11-18T11:08:36.996Z,88.44
2022-11-18T11:11:57.002Z,88.42
2022-11-18T11:15:06.695Z,88.36
2022-11-18T11:18:39.128Z,88.23
2022-11-18T11:21:45.469Z,88.36
2022-11-18T11:24:50.018Z,88.32
2022-11-18T11:28:18.462Z,88.14
2022-11-18T11:31:32.537Z,88.07
2022-11-18T11:34:45.536Z,87.99
2022-11-18T11:37:57.275Z,88.09
2022-11-18T11:41:15.436Z,87.98
2022-11-18T11:44:46.415Z,88.02
2022-11-18T11:48:09.913Z,87.97
2022-11-18T11:51:25.563Z,87.98
2022-11-18T11:54:53.102Z,88.07
2022-11-18T11:58:17.866Z,88.11
2022-11-18T12:01:33.204Z,88.27
2022-11-18T12:04:48.032Z,88.21
2022-11-18T12:07:57.805Z,88.07
2022-11-18T12:11:15.345Z,87.97
2022-11-18T12:14:35.775Z,87.86
2022-11-18T12:17:53.836Z,87.98
2022-11-18T12:21:00.119Z,87.98
2022-11-18T12:24:18.059Z,87.79
2022-11-18T12:28:00.614Z,87.93
2022-11-18T12:31:33.635Z,87.98
2022-11-18T12:34:43.378Z,87.78
2022-11-18T12:38:04.246Z,87.86
2022-11-18T12:42:09.371Z,88.01
2022-11-18T12:45:51.469Z,87.82
2022-11-18T12:48:58.090Z,87.98
2022-11-18T12:52:06.014Z,87.79
2022-11-18T12:55:19.611Z,87.86
2022-11-18T12:58:29.598Z,87.80
2022-11-18T13:01:36.782Z,87.90
2022-11-18T13:04:46.678Z,87.96
2022-11-18T13:08:17.529Z,88.03
2022-11-18T13:11:42.187Z,87.92
2022-11-18T13:15:06.140Z,87.84
2022-11-18T13:18:17.012Z,87.85
2022-11-18T13:21:47.233Z,87.80
2022-11-18T13:24:54.353Z,87.86
2022-11-18T13:28:11.845Z,87.99
2022-11-18T13:31:24.439Z,87.93
2022-11-18T13:34:32.270Z,87.94
2022-11-18T13:37:49.149Z,87.76
2022-11-18T13:41:13.209Z,88.01
2022-11-18T13:44:24.320Z,88.03
2022-11-18T13:47:41.604Z,87.69
2022-11-18T13:50:54.088Z,87.63
2022-11-18T13:54:00.612Z,87.56
2022-11-18T13:57:07.059Z,87.68
2022-11-18T14:00:24.757Z,87.58
2022-11-18T14:03:35.202Z,87.77
2022-11-18T14:06:42.998Z,87.68
2022-11-18T14:09:57.701Z,87.70
2022-11-18T14:13:05.380Z,87.74
2022-11-18T14:16:34.035Z,87.69
2022-11-18T14:19:42.073Z,87.54
2022-11-18T14:22:52.130Z,87.43
2022-11-18T14:25:59.872Z,87.36
2022-11-18T14:29:21.453Z,87.39
2022-11-18T14:32:27.829Z,87.52
2022-11-18T14:35:35.059Z,87.69
2022-11-18T14:42:16.827Z,87.60
2022-11-18T14:45:24.270Z,87.37
2022-11-18T14:48:32.766Z,87.42
2022-11-18T14:51:39.251Z,87.50
2022-11-18T14:54:43.929Z,87.33
2022-11-18T14:57:50.194Z,87.24
2022-11-18T15:00:54.980Z,87.43
2022-11-18T15:04:01.713Z,87.28
2022-11-18T15:07:08.261Z,87.27
2022-11-18T15:10:17.230Z,87.32
2022-11-18T15:13:23.432Z,87.47
2022-11-18T15:16:31.691Z,87.54
2022-11-18T15:19:38.414Z,87.39
2022-11-18T15:22:44.808Z,87.44
2022-11-18T15:25:51.103Z,87.12
2022-11-18T15:28:56.477Z,87.11
2022-11-18T15:32:05.382Z,87.08
2022-11-18T15:35:14.336Z,87.34
2022-11-18T15:38:20.614Z,87.17
2022-11-18T15:41:26.461Z,87.20
2022-11-18T15:44:33.196Z,87.17
2022-11-18T15:47:39.437Z,87.14
2022-11-18T15:50:45.957Z,86.95
2022-11-18T15:53:52.519Z,87.04
2022-11-18T15:56:58.837Z,87.15
2022-11-18T16:00:03.801Z,87.11
2022-11-18T16:03:10.542Z,87.05
2022-11-18T16:06:16.917Z,87.06
2022-11-18T16:09:21.866Z,86.95
2022-11-18T16:12:45.973Z,87.13
2022-11-18T16:15:52.225Z,87.03
2022-11-18T16:18:56.930Z,86.94
2022-11-18T16:22:03.407Z,87.12
2022-11-18T16:25:10.801Z,87.25
2022-11-18T16:28:17.274Z,87.15
2022-11-18T16:31:43.749Z,87.06
2022-11-18T16:34:50.222Z,86.86
2022-11-18T16:37:56.668Z,86.97
2022-11-18T16:41:23.124Z,86.95
2022-11-18T16:44:29.424Z,87.04
2022-11-18T16:47:34.017Z,86.99
2022-11-18T16:50:40.741Z,86.96
2022-11-18T16:53:50.593Z,87.03
2022-11-18T16:56:58.190Z,87.15
2022-11-18T17:00:04.995Z,87.02
2022-11-18T17:03:11.469Z,86.87
2022-11-18T17:06:17.693Z,86.78
2022-11-18T17:09:25.217Z,86.91
2022-11-18T17:12:31.819Z,86.91
2022-11-18T17:15:39.717Z,86.81
2022-11-18T17:18:46.578Z,86.81
2022-11-18T17:21:53.421Z,86.81
2022-11-18T17:25:04.917Z,86.88
2022-11-18T17:28:11.835Z,86.83
2022-11-18T17:31:20.256Z,86.85
2022-11-18T17:34:26.593Z,86.72
2022-11-18T17:37:31.646Z,86.54
2022-11-18T17:40:38.029Z,86.41
2022-11-18T17:43:42.642Z,86.66
2022-11-18T17:46:49.403Z,86.72
2022-11-18T17:49:55.629Z,86.47
2022-11-18T17:53:01.931Z,86.42
2022-11-18T17:56:09.785Z,86.57
2022-11-18T17:59:17.468Z,86.48
2022-11-18T18:02:23.760Z,86.51
2022-11-18T18:05:30.315Z,86.62
2022-11-18T18:08:37.092Z,86.55
2022-11-18T18:11:43.581Z,86.30
2022-11-18T18:14:49.854Z,86.44
2022-11-18T18:17:54.473Z,86.52
2022-11-18T18:21:06.419Z,86.47
2022-11-18T18:24:17.576Z,86.51
2022-11-18T18:27:24.222Z,86.59
2022-11-18T18:30:30.491Z,86.44
2022-11-18T18:33:36.422Z,86.28
2022-11-18T18:36:40.989Z,86.30
2022-11-18T18:39:47.898Z,86.30
2022-11-18T18:42:54.113Z,86.13
2022-11-18T18:46:21.484Z,86.38
2022-11-18T18:49:27.806Z,86.30
2022-11-18T18:52:33.525Z,86.16
2022-11-18T18:55:44.682Z,86.08
2022-11-18T18:58:51.713Z,86.11
2022-11-18T19:01:58.030Z,86.03
2022-11-18T19:05:02.628Z,85.88
2022-11-18T19:08:09.486Z,85.76
2022-11-18T19:11:30.295Z,85.78
2022-11-18T19:14:37.741Z,85.96
2022-11-18T19:17:44.117Z,86.19
2022-11-18T19:20:50.591Z,85.99
2022-11-18T19:23:57.009Z,85.76
2022-11-18T19:27:03.648Z,85.98
2022-11-18T19:30:12.736Z,85.89
2022-11-18T19:33:19.146Z,85.72
2022-11-18T19:36:25.596Z,85.73
2022-11-18T19:39:32.053Z,85.81
2022-11-18T19:42:39.657Z,85.82
2022-11-18T19:45:53.374Z,85.60
2022-11-18T19:48:59.925Z,85.52
2022-11-18T19:52:06.261Z,85.50
2022-11-18T19:55:11.208Z,85.60
2022-11-18T19:58:17.414Z,85.49
2022-11-18T20:01:25.486Z,85.48
2022-11-18T20:04:31.859Z,85.29
2022-11-18T20:07:36.406Z,85.25
2022-11-18T20:10:42.787Z,85.27
2022-11-18T20:13:47.568Z,85.04
2022-11-18T20:16:54.077Z,85.09
2022-11-18T20:20:00.412Z,85.27
2022-11-18T20:23:05.089Z,84.94
2022-11-18T20:26:14.111Z,85.08
2022-11-18T20:29:21.148Z,85.25
2022-11-18T20:32:27.850Z,85.17
2022-11-18T20:35:34.179Z,85.19
2022-11-18T20:38:39.177Z,85.22
2022-11-18T20:42:06.681Z,85.07
2022-11-18T20:45:13.956Z,84.78
2022-11-18T20:48:20.248Z,84.89
2022-11-18T20:51:25.421Z,85.03
2022-11-18T20:54:31.664Z,84.92
2022-11-18T20:57:36.226Z,84.84
2022-11-18T21:00:42.658Z,84.96
2022-11-18T21:03:52.761Z,84.86
2022-11-18T21:07:01.880Z,84.87
2022-11-18T21:10:09.950Z,84.88
2022-11-18T21:13:33.816Z,84.81
2022-11-18T21:16:40.997Z,84.73
2022-11-18T21:19:48.669Z,84.73
2022-11-18T21:22:55.074Z,84.60
2022-11-18T21:25:59.562Z,84.58
2022-11-18T21:29:07.380Z,84.78
2022-11-18T21:32:13.841Z,84.54
2022-11-18T21:35:20.125Z,84.54
2022-11-18T21:38:24.703Z,84.62
2022-11-18T21:41:31.689Z,84.34
2022-11-18T21:44:37.974Z,84.31
2022-11-18T21:47:42.583Z,84.21
2022-11-18T21:50:48.809Z,84.09
2022-11-18T21:53:55.548Z,84.01
2022-11-18T21:57:02.099Z,84.19
2022-11-18T22:00:10.909Z,84.22
2022-11-18T22:03:17.250Z,84.07
2022-11-18T22:06:22.393Z,84.12
2022-11-18T22:09:34.619Z,83.91
2022-11-18T22:12:42.757Z,84.12
2022-11-18T22:15:49.174Z,84.14
2022-11-18T22:19:02.570Z,84.09
2022-11-18T22:22:09.876Z,84.18
2022-11-18T22:25:16.254Z,84.02
2022-11-18T22:28:22.591Z,83.92
2022-11-18T22:31:28.277Z,83.93
2022-11-18T22:34:34.506Z,83.99
2022-11-18T22:37:39.127Z,84.04
2022-11-18T22:40:45.329Z,83.90
2022-11-18T22:43:51.603Z,83.98
2022-11-18T22:46:56.239Z,83.86
2022-11-18T22:50:02.510Z,83.75
2022-11-18T22:53:07.010Z,83.66
2022-11-18T22:56:15.408Z,83.72
2022-11-18T22:59:22.399Z,83.73
2022-11-18T23:02:28.286Z,83.77
2022-11-18T23:05:33.900Z,83.72
2022-11-18T23:08:41.101Z,83.83
2022-11-18T23:12:04.400Z,83.55
2022-11-18T23:15:11.483Z,83.47
2022-11-18T23:18:17.127Z,83.46
2022-11-18T23:21:23.907Z,83.53
2022-11-18T23:24:29.479Z,83.34
2022-11-18T23:27:35.107Z,83.29
2022-11-18T23:30:40.758Z,83.32
2022-11-18T23:33:46.601Z,83.37
2022-11-18T23:36:52.266Z,83.48
2022-11-18T23:39:57.859Z,83.31
2022-11-18T23:43:03.457Z,83.52
2022-11-18T23:46:10.633Z,83.49
2022-11-18T23:49:17.138Z,83.45
2022-11-18T23:52:23.085Z,83.52
2022-11-18T23:55:28.652Z,83.42
2022-11-18T23:58:34.287Z,83.54
